sensor_id;sensor_type;location;lat;lon;timestamp;temperature;humidity
18339;DHT22;9295;44.484;11.240;2022-09-16T00:01:29;23.00;99.90
18339;DHT22;9295;44.484;11.240;2022-09-16T00:03:57;23.10;99.90
18339;DHT22;9295;44.484;11.240;2022-09-16T00:06:27;23.00;99.90
18339;DHT22;9295;44.484;11.240;2022-09-16T00:08:57;23.00;99.90
18339;DHT22;9295;44.484;11.240;2022-09-16T00:11:27;23.00;99.90
18339;DHT22;9295;44.484;11.240;2022-09-16T00:13:56;22.90;99.90
18339;DHT22;9295;44.484;11.240;2022-09-16T00:16:26;22.90;99.90
18339;DHT22;9295;44.484;11.240;2022-09-16T00:18:57;22.80;99.90
18339;DHT22;9295;44.484;11.240;2022-09-16T00:21:27;22.80;99.90
18339;DHT22;9295;44.484;11.240;2022-09-16T00:23:56;22.80;99.90
18339;DHT22;9295;44.484;11.240;2022-09-16T00:26:25;22.80;99.90
18339;DHT22;9295;44.484;11.240;2022-09-16T00:28:53;22.80;99.90
18339;DHT22;9295;44.484;11.240;2022-09-16T00:31:22;22.70;99.90
18339;DHT22;9295;44.484;11.240;2022-09-16T00:33:51;22.70;99.90
18339;DHT22;9295;44.484;11.240;2022-09-16T00:36:20;22.70;99.90
18339;DHT22;9295;44.484;11.240;2022-09-16T00:38:49;22.60;99.90
18339;DHT22;9295;44.484;11.240;2022-09-16T00:41:20;22.60;99.90
18339;DHT22;9295;44.484;11.240;2022-09-16T00:43:52;22.60;99.90
18339;DHT22;9295;44.484;11.240;2022-09-16T00:46:26;22.50;99.90
18339;DHT22;9295;44.484;11.240;2022-09-16T00:49:02;22.40;99.90
18339;DHT22;9295;44.484;11.240;2022-09-16T00:51:32;22.40;99.90
18339;DHT22;9295;44.484;11.240;2022-09-16T00:54:03;22.30;99.90
18339;DHT22;9295;44.484;11.240;2022-09-16T00:56:37;22.20;99.90
18339;DHT22;9295;44.484;11.240;2022-09-16T00:59:08;22.20;99.90
18339;DHT22;9295;44.484;11.240;2022-09-16T01:01:38;22.20;99.90
18339;DHT22;9295;44.484;11.240;2022-09-16T01:04:13;22.20;99.90
18339;DHT22;9295;44.484;11.240;2022-09-16T01:06:44;22.20;99.90
18339;DHT22;9295;44.484;11.240;2022-09-16T01:09:12;22.40;99.90
18339;DHT22;9295;44.484;11.240;2022-09-16T01:11:41;22.40;99.90
18339;DHT22;9295;44.484;11.240;2022-09-16T01:14:10;22.40;99.90
18339;DHT22;9295;44.484;11.240;2022-09-16T01:17:02;22.40;99.90
18339;DHT22;9295;44.484;11.240;2022-09-16T01:19:48;22.40;99.90
18339;DHT22;9295;44.484;11.240;2022-09-16T01:22:29;22.20;99.90
18339;DHT22;9295;44.484;11.240;2022-09-16T01:25:14;22.10;99.90
18339;DHT22;9295;44.484;11.240;2022-09-16T01:28:03;22.00;99.90
18339;DHT22;9295;44.484;11.240;2022-09-16T01:30:45;22.00;99.90
18339;DHT22;9295;44.484;11.240;2022-09-16T01:33:23;22.00;99.90
18339;DHT22;9295;44.484;11.240;2022-09-16T01:36:03;21.90;99.90
18339;DHT22;9295;44.484;11.240;2022-09-16T01:38:48;21.80;99.90
18339;DHT22;9295;44.484;11.240;2022-09-16T01:41:24;21.80;99.90
18339;DHT22;9295;44.484;11.240;2022-09-16T01:43:59;21.80;99.90
18339;DHT22;9295;44.484;11.240;2022-09-16T01:46:38;21.70;99.90
18339;DHT22;9295;44.484;11.240;2022-09-16T01:49:16;21.70;99.90
18339;DHT22;9295;44.484;11.240;2022-09-16T01:51:50;21.70;99.90
18339;DHT22;9295;44.484;11.240;2022-09-16T01:54:28;21.70;99.90
18339;DHT22;9295;44.484;11.240;2022-09-16T01:57:00;21.70;99.90
18339;DHT22;9295;44.484;11.240;2022-09-16T01:59:36;21.70;99.90
18339;DHT22;9295;44.484;11.240;2022-09-16T02:02:10;21.60;99.90
18339;DHT22;9295;44.484;11.240;2022-09-16T02:04:44;21.70;99.90
18339;DHT22;9295;44.484;11.240;2022-09-16T02:07:16;21.70;99.90
18339;DHT22;9295;44.484;11.240;2022-09-16T02:09:50;21.70;99.90
18339;DHT22;9295;44.484;11.240;2022-09-16T02:12:23;21.60;99.90
18339;DHT22;9295;44.484;11.240;2022-09-16T02:14:56;21.60;99.90
18339;DHT22;9295;44.484;11.240;2022-09-16T02:17:32;21.70;99.90
18339;DHT22;9295;44.484;11.240;2022-09-16T02:20:06;21.60;99.90
18339;DHT22;9295;44.484;11.240;2022-09-16T02:22:38;21.60;99.90
18339;DHT22;9295;44.484;11.240;2022-09-16T02:25:08;21.50;99.90
18339;DHT22;9295;44.484;11.240;2022-09-16T02:27:38;21.50;99.90
18339;DHT22;9295;44.484;11.240;2022-09-16T02:30:09;21.50;99.90
18339;DHT22;9295;44.484;11.240;2022-09-16T02:32:44;21.40;99.90
18339;DHT22;9295;44.484;11.240;2022-09-16T02:35:15;21.40;99.90
18339;DHT22;9295;44.484;11.240;2022-09-16T02:37:48;21.30;99.90
18339;DHT22;9295;44.484;11.240;2022-09-16T02:40:21;21.40;99.90
18339;DHT22;9295;44.484;11.240;2022-09-16T02:42:51;21.40;99.90
18339;DHT22;9295;44.484;11.240;2022-09-16T02:45:24;21.40;99.90
18339;DHT22;9295;44.484;11.240;2022-09-16T02:48:00;21.40;99.90
18339;DHT22;9295;44.484;11.240;2022-09-16T02:50:36;21.40;99.90
18339;DHT22;9295;44.484;11.240;2022-09-16T02:53:12;21.40;99.90
18339;DHT22;9295;44.484;11.240;2022-09-16T02:55:49;21.40;99.90
18339;DHT22;9295;44.484;11.240;2022-09-16T02:58:18;21.40;99.90
18339;DHT22;9295;44.484;11.240;2022-09-16T03:00:49;21.40;99.90
18339;DHT22;9295;44.484;11.240;2022-09-16T03:03:21;21.40;99.90
18339;DHT22;9295;44.484;11.240;2022-09-16T03:06:10;21.40;99.90
18339;DHT22;9295;44.484;11.240;2022-09-16T03:08:41;21.40;99.90
18339;DHT22;9295;44.484;11.240;2022-09-16T03:11:40;21.30;99.90
18339;DHT22;9295;44.484;11.240;2022-09-16T03:14:24;21.20;99.90
18339;DHT22;9295;44.484;11.240;2022-09-16T03:17:06;21.20;99.90
18339;DHT22;9295;44.484;11.240;2022-09-16T03:19:44;21.20;99.90
18339;DHT22;9295;44.484;11.240;2022-09-16T03:22:20;21.20;99.90
18339;DHT22;9295;44.484;11.240;2022-09-16T03:25:00;21.10;99.90
18339;DHT22;9295;44.484;11.240;2022-09-16T03:27:36;21.10;99.90
18339;DHT22;9295;44.484;11.240;2022-09-16T03:30:07;21.10;99.90
18339;DHT22;9295;44.484;11.240;2022-09-16T03:32:40;21.20;99.90
18339;DHT22;9295;44.484;11.240;2022-09-16T03:35:14;21.20;99.90
18339;DHT22;9295;44.484;11.240;2022-09-16T03:37:44;21.30;99.90
18339;DHT22;9295;44.484;11.240;2022-09-16T03:40:16;21.40;99.90
18339;DHT22;9295;44.484;11.240;2022-09-16T03:42:45;21.50;99.90
18339;DHT22;9295;44.484;11.240;2022-09-16T03:45:16;21.50;99.90
18339;DHT22;9295;44.484;11.240;2022-09-16T03:47:46;21.50;99.90
18339;DHT22;9295;44.484;11.240;2022-09-16T03:50:19;21.50;99.90
18339;DHT22;9295;44.484;11.240;2022-09-16T03:52:48;21.60;99.90
18339;DHT22;9295;44.484;11.240;2022-09-16T03:55:16;21.60;99.90
18339;DHT22;9295;44.484;11.240;2022-09-16T03:57:45;21.80;99.90
18339;DHT22;9295;44.484;11.240;2022-09-16T04:00:13;21.80;99.90
18339;DHT22;9295;44.484;11.240;2022-09-16T04:02:42;21.80;99.90
18339;DHT22;9295;44.484;11.240;2022-09-16T04:05:11;21.70;99.90
18339;DHT22;9295;44.484;11.240;2022-09-16T04:07:40;21.60;99.90
18339;DHT22;9295;44.484;11.240;2022-09-16T04:10:09;21.50;99.90
18339;DHT22;9295;44.484;11.240;2022-09-16T04:12:38;21.30;99.90
18339;DHT22;9295;44.484;11.240;2022-09-16T04:15:07;21.20;99.90
18339;DHT22;9295;44.484;11.240;2022-09-16T04:17:36;21.20;99.90
18339;DHT22;9295;44.484;11.240;2022-09-16T04:20:05;21.00;99.90
18339;DHT22;9295;44.484;11.240;2022-09-16T04:22:34;21.00;99.90
18339;DHT22;9295;44.484;11.240;2022-09-16T04:25:05;20.80;99.90
18339;DHT22;9295;44.484;11.240;2022-09-16T04:27:33;20.80;99.90
18339;DHT22;9295;44.484;11.240;2022-09-16T04:30:02;20.80;99.90
18339;DHT22;9295;44.484;11.240;2022-09-16T04:32:30;20.70;99.90
18339;DHT22;9295;44.484;11.240;2022-09-16T04:34:58;20.70;99.90
18339;DHT22;9295;44.484;11.240;2022-09-16T04:37:29;20.70;99.90
18339;DHT22;9295;44.484;11.240;2022-09-16T04:39:57;20.60;99.90
18339;DHT22;9295;44.484;11.240;2022-09-16T04:42:32;20.60;99.90
18339;DHT22;9295;44.484;11.240;2022-09-16T04:45:00;20.60;99.90
18339;DHT22;9295;44.484;11.240;2022-09-16T04:47:29;20.60;99.90
18339;DHT22;9295;44.484;11.240;2022-09-16T04:49:57;20.70;99.90
18339;DHT22;9295;44.484;11.240;2022-09-16T04:52:26;20.70;99.90
18339;DHT22;9295;44.484;11.240;2022-09-16T04:54:57;20.80;99.90
18339;DHT22;9295;44.484;11.240;2022-09-16T04:57:28;20.90;99.90
18339;DHT22;9295;44.484;11.240;2022-09-16T04:59:58;20.90;99.90
18339;DHT22;9295;44.484;11.240;2022-09-16T05:02:26;20.90;99.90
18339;DHT22;9295;44.484;11.240;2022-09-16T05:04:56;21.00;99.90
18339;DHT22;9295;44.484;11.240;2022-09-16T05:07:24;21.00;99.90
18339;DHT22;9295;44.484;11.240;2022-09-16T05:09:53;21.10;99.90
18339;DHT22;9295;44.484;11.240;2022-09-16T05:12:21;21.10;99.90
18339;DHT22;9295;44.484;11.240;2022-09-16T05:14:50;21.20;99.90
18339;DHT22;9295;44.484;11.240;2022-09-16T05:17:20;21.20;99.90
18339;DHT22;9295;44.484;11.240;2022-09-16T05:20:08;21.20;99.90
18339;DHT22;9295;44.484;11.240;2022-09-16T05:22:37;21.20;99.90
18339;DHT22;9295;44.484;11.240;2022-09-16T05:25:05;21.20;99.90
18339;DHT22;9295;44.484;11.240;2022-09-16T05:27:34;21.20;99.90
18339;DHT22;9295;44.484;11.240;2022-09-16T05:30:03;21.20;99.90
18339;DHT22;9295;44.484;11.240;2022-09-16T05:32:33;21.20;99.90
18339;DHT22;9295;44.484;11.240;2022-09-16T05:35:01;21.20;99.90
18339;DHT22;9295;44.484;11.240;2022-09-16T05:37:29;21.30;99.90
18339;DHT22;9295;44.484;11.240;2022-09-16T05:39:58;21.30;99.90
18339;DHT22;9295;44.484;11.240;2022-09-16T05:42:26;21.30;99.90
18339;DHT22;9295;44.484;11.240;2022-09-16T05:44:55;21.40;99.90
18339;DHT22;9295;44.484;11.240;2022-09-16T05:47:23;21.50;99.90
18339;DHT22;9295;44.484;11.240;2022-09-16T05:49:54;21.60;99.90
18339;DHT22;9295;44.484;11.240;2022-09-16T05:52:22;21.70;99.90
18339;DHT22;9295;44.484;11.240;2022-09-16T05:54:51;21.80;99.90
18339;DHT22;9295;44.484;11.240;2022-09-16T05:57:19;21.90;99.90
18339;DHT22;9295;44.484;11.240;2022-09-16T05:59:49;22.10;99.90
18339;DHT22;9295;44.484;11.240;2022-09-16T06:02:18;22.20;99.90
18339;DHT22;9295;44.484;11.240;2022-09-16T06:04:46;22.40;99.90
18339;DHT22;9295;44.484;11.240;2022-09-16T06:07:16;22.60;99.90
18339;DHT22;9295;44.484;11.240;2022-09-16T06:09:44;23.10;99.90
18339;DHT22;9295;44.484;11.240;2022-09-16T06:12:13;24.10;99.90
18339;DHT22;9295;44.484;11.240;2022-09-16T06:14:42;25.10;99.90
18339;DHT22;9295;44.484;11.240;2022-09-16T06:17:10;26.10;99.90
18339;DHT22;9295;44.484;11.240;2022-09-16T06:19:38;26.60;99.90
18339;DHT22;9295;44.484;11.240;2022-09-16T06:22:07;26.50;99.90
18339;DHT22;9295;44.484;11.240;2022-09-16T06:24:36;26.20;99.90
18339;DHT22;9295;44.484;11.240;2022-09-16T06:27:05;25.90;99.90
18339;DHT22;9295;44.484;11.240;2022-09-16T06:29:34;25.80;99.90
18339;DHT22;9295;44.484;11.240;2022-09-16T06:32:02;25.60;99.90
18339;DHT22;9295;44.484;11.240;2022-09-16T06:34:31;25.70;99.90
18339;DHT22;9295;44.484;11.240;2022-09-16T06:36:59;25.70;99.90
18339;DHT22;9295;44.484;11.240;2022-09-16T06:39:28;25.70;99.90
18339;DHT22;9295;44.484;11.240;2022-09-16T06:41:58;25.80;99.90
18339;DHT22;9295;44.484;11.240;2022-09-16T06:44:40;25.90;99.90
18339;DHT22;9295;44.484;11.240;2022-09-16T06:47:08;26.10;99.90
18339;DHT22;9295;44.484;11.240;2022-09-16T06:49:36;26.20;99.90
18339;DHT22;9295;44.484;11.240;2022-09-16T06:52:05;26.30;99.90
18339;DHT22;9295;44.484;11.240;2022-09-16T06:54:35;26.40;99.90
18339;DHT22;9295;44.484;11.240;2022-09-16T06:57:05;26.60;99.90
18339;DHT22;9295;44.484;11.240;2022-09-16T06:59:38;26.70;99.90
18339;DHT22;9295;44.484;11.240;2022-09-16T07:02:08;26.90;99.90
18339;DHT22;9295;44.484;11.240;2022-09-16T07:04:37;27.00;99.90
18339;DHT22;9295;44.484;11.240;2022-09-16T07:07:05;27.00;99.90
18339;DHT22;9295;44.484;11.240;2022-09-16T07:09:36;27.20;99.90
18339;DHT22;9295;44.484;11.240;2022-09-16T07:12:06;27.30;99.90
18339;DHT22;9295;44.484;11.240;2022-09-16T07:14:34;27.40;99.90
18339;DHT22;9295;44.484;11.240;2022-09-16T07:17:03;27.40;99.90
18339;DHT22;9295;44.484;11.240;2022-09-16T07:19:31;27.60;99.90
18339;DHT22;9295;44.484;11.240;2022-09-16T07:22:00;27.60;99.90
18339;DHT22;9295;44.484;11.240;2022-09-16T07:24:28;27.70;99.90
18339;DHT22;9295;44.484;11.240;2022-09-16T07:26:57;27.70;99.90
18339;DHT22;9295;44.484;11.240;2022-09-16T07:29:26;27.70;99.90
18339;DHT22;9295;44.484;11.240;2022-09-16T07:31:55;27.70;99.90
18339;DHT22;9295;44.484;11.240;2022-09-16T07:34:23;27.70;99.90
18339;DHT22;9295;44.484;11.240;2022-09-16T07:36:52;27.70;99.90
18339;DHT22;9295;44.484;11.240;2022-09-16T07:39:20;27.80;99.90
18339;DHT22;9295;44.484;11.240;2022-09-16T07:41:48;27.90;99.90
18339;DHT22;9295;44.484;11.240;2022-09-16T07:44:18;27.90;99.90
18339;DHT22;9295;44.484;11.240;2022-09-16T07:46:48;27.90;99.90
18339;DHT22;9295;44.484;11.240;2022-09-16T07:49:17;27.90;99.90
18339;DHT22;9295;44.484;11.240;2022-09-16T07:51:46;28.00;99.90
18339;DHT22;9295;44.484;11.240;2022-09-16T07:54:16;28.00;99.90
18339;DHT22;9295;44.484;11.240;2022-09-16T07:56:46;28.10;99.90
18339;DHT22;9295;44.484;11.240;2022-09-16T07:59:16;28.20;99.90
18339;DHT22;9295;44.484;11.240;2022-09-16T08:01:48;28.20;99.90
18339;DHT22;9295;44.484;11.240;2022-09-16T08:04:17;28.20;99.90
18339;DHT22;9295;44.484;11.240;2022-09-16T08:06:46;28.30;99.90
18339;DHT22;9295;44.484;11.240;2022-09-16T08:09:15;28.30;99.90
18339;DHT22;9295;44.484;11.240;2022-09-16T08:12:05;28.30;99.90
18339;DHT22;9295;44.484;11.240;2022-09-16T08:14:34;28.30;99.90
18339;DHT22;9295;44.484;11.240;2022-09-16T08:17:04;28.20;99.90
18339;DHT22;9295;44.484;11.240;2022-09-16T08:19:33;28.20;99.90
18339;DHT22;9295;44.484;11.240;2022-09-16T08:22:01;28.40;99.90
18339;DHT22;9295;44.484;11.240;2022-09-16T08:24:30;28.40;99.90
18339;DHT22;9295;44.484;11.240;2022-09-16T08:26:58;28.40;99.90
18339;DHT22;9295;44.484;11.240;2022-09-16T08:29:26;28.40;99.90
18339;DHT22;9295;44.484;11.240;2022-09-16T08:31:55;28.20;99.90
18339;DHT22;9295;44.484;11.240;2022-09-16T08:34:25;28.20;99.90
18339;DHT22;9295;44.484;11.240;2022-09-16T08:36:53;28.20;99.90
18339;DHT22;9295;44.484;11.240;2022-09-16T08:39:22;28.20;99.90
18339;DHT22;9295;44.484;11.240;2022-09-16T08:42:06;28.20;99.90
18339;DHT22;9295;44.484;11.240;2022-09-16T08:44:42;28.00;99.90
18339;DHT22;9295;44.484;11.240;2022-09-16T08:47:24;27.90;99.90
18339;DHT22;9295;44.484;11.240;2022-09-16T08:49:58;28.10;99.90
18339;DHT22;9295;44.484;11.240;2022-09-16T08:52:28;28.10;99.90
18339;DHT22;9295;44.484;11.240;2022-09-16T08:55:00;28.10;99.90
18339;DHT22;9295;44.484;11.240;2022-09-16T08:57:32;28.10;99.90
18339;DHT22;9295;44.484;11.240;2022-09-16T09:00:06;28.30;99.90
18339;DHT22;9295;44.484;11.240;2022-09-16T09:02:38;28.20;99.90
18339;DHT22;9295;44.484;11.240;2022-09-16T09:05:17;27.90;99.90
18339;DHT22;9295;44.484;11.240;2022-09-16T09:07:58;27.80;99.90
18339;DHT22;9295;44.484;11.240;2022-09-16T09:10:36;27.80;99.90
18339;DHT22;9295;44.484;11.240;2022-09-16T09:13:18;27.70;99.90
18339;DHT22;9295;44.484;11.240;2022-09-16T09:16:08;28.10;99.90
18339;DHT22;9295;44.484;11.240;2022-09-16T09:18:48;28.20;99.90
18339;DHT22;9295;44.484;11.240;2022-09-16T09:21:26;28.10;99.90
18339;DHT22;9295;44.484;11.240;2022-09-16T09:24:22;28.20;99.90
18339;DHT22;9295;44.484;11.240;2022-09-16T09:26:57;28.20;99.90
18339;DHT22;9295;44.484;11.240;2022-09-16T09:29:48;28.20;99.90
18339;DHT22;9295;44.484;11.240;2022-09-16T09:32:24;28.10;99.90
18339;DHT22;9295;44.484;11.240;2022-09-16T09:35:21;28.10;99.90
18339;DHT22;9295;44.484;11.240;2022-09-16T09:38:14;28.20;99.90
18339;DHT22;9295;44.484;11.240;2022-09-16T09:40:49;28.30;99.90
18339;DHT22;9295;44.484;11.240;2022-09-16T09:43:23;28.50;99.90
18339;DHT22;9295;44.484;11.240;2022-09-16T09:45:58;28.60;99.90
18339;DHT22;9295;44.484;11.240;2022-09-16T09:48:31;28.60;99.90
18339;DHT22;9295;44.484;11.240;2022-09-16T09:51:06;28.60;99.90
18339;DHT22;9295;44.484;11.240;2022-09-16T09:53:42;28.70;99.90
18339;DHT22;9295;44.484;11.240;2022-09-16T09:56:17;28.80;99.90
18339;DHT22;9295;44.484;11.240;2022-09-16T09:58:53;28.70;99.90
18339;DHT22;9295;44.484;11.240;2022-09-16T10:01:25;28.60;99.90
18339;DHT22;9295;44.484;11.240;2022-09-16T10:03:54;28.60;99.90
18339;DHT22;9295;44.484;11.240;2022-09-16T10:06:28;28.50;99.90
18339;DHT22;9295;44.484;11.240;2022-09-16T10:08:58;28.30;99.90
18339;DHT22;9295;44.484;11.240;2022-09-16T10:11:29;28.30;99.90
18339;DHT22;9295;44.484;11.240;2022-09-16T10:14:00;28.30;99.90
18339;DHT22;9295;44.484;11.240;2022-09-16T10:16:31;28.40;99.90
18339;DHT22;9295;44.484;11.240;2022-09-16T10:19:01;28.30;99.90
18339;DHT22;9295;44.484;11.240;2022-09-16T10:21:40;28.20;99.90
18339;DHT22;9295;44.484;11.240;2022-09-16T10:24:34;28.20;99.90
18339;DHT22;9295;44.484;11.240;2022-09-16T10:27:18;28.30;99.90
18339;DHT22;9295;44.484;11.240;2022-09-16T10:29:47;28.10;99.90
18339;DHT22;9295;44.484;11.240;2022-09-16T10:32:30;28.10;99.90
18339;DHT22;9295;44.484;11.240;2022-09-16T10:35:05;28.20;99.90
18339;DHT22;9295;44.484;11.240;2022-09-16T10:37:36;28.30;99.90
18339;DHT22;9295;44.484;11.240;2022-09-16T10:40:15;28.30;99.90
18339;DHT22;9295;44.484;11.240;2022-09-16T10:42:46;28.20;99.90
18339;DHT22;9295;44.484;11.240;2022-09-16T10:45:21;28.20;99.90
18339;DHT22;9295;44.484;11.240;2022-09-16T10:47:52;28.30;99.90
18339;DHT22;9295;44.484;11.240;2022-09-16T10:50:22;28.20;99.90
18339;DHT22;9295;44.484;11.240;2022-09-16T10:52:51;28.20;99.90
18339;DHT22;9295;44.484;11.240;2022-09-16T10:55:25;28.40;99.90
18339;DHT22;9295;44.484;11.240;2022-09-16T10:58:05;28.50;99.90
18339;DHT22;9295;44.484;11.240;2022-09-16T11:00:40;28.50;99.90
18339;DHT22;9295;44.484;11.240;2022-09-16T11:03:47;28.50;99.90
18339;DHT22;9295;44.484;11.240;2022-09-16T11:06:28;28.40;99.90
18339;DHT22;9295;44.484;11.240;2022-09-16T11:09:06;28.40;99.90
18339;DHT22;9295;44.484;11.240;2022-09-16T11:11:48;28.40;99.90
18339;DHT22;9295;44.484;11.240;2022-09-16T11:14:27;28.30;99.90
18339;DHT22;9295;44.484;11.240;2022-09-16T11:17:09;28.30;99.90
18339;DHT22;9295;44.484;11.240;2022-09-16T11:19:49;28.50;99.90
18339;DHT22;9295;44.484;11.240;2022-09-16T11:22:25;28.50;99.90
18339;DHT22;9295;44.484;11.240;2022-09-16T11:28:14;28.40;99.90
18339;DHT22;9295;44.484;11.240;2022-09-16T11:30:51;28.40;99.90
18339;DHT22;9295;44.484;11.240;2022-09-16T11:33:27;28.40;99.90
18339;DHT22;9295;44.484;11.240;2022-09-16T11:36:20;28.50;99.90
18339;DHT22;9295;44.484;11.240;2022-09-16T11:39:00;28.50;99.90
18339;DHT22;9295;44.484;11.240;2022-09-16T11:41:37;28.60;99.90
18339;DHT22;9295;44.484;11.240;2022-09-16T11:44:23;28.60;99.90
18339;DHT22;9295;44.484;11.240;2022-09-16T11:47:03;28.70;99.90
18339;DHT22;9295;44.484;11.240;2022-09-16T11:50:02;28.70;99.90
18339;DHT22;9295;44.484;11.240;2022-09-16T11:52:41;28.80;99.90
18339;DHT22;9295;44.484;11.240;2022-09-16T11:55:20;28.80;99.90
18339;DHT22;9295;44.484;11.240;2022-09-16T11:57:57;28.80;99.90
18339;DHT22;9295;44.484;11.240;2022-09-16T12:00:28;28.80;99.90
18339;DHT22;9295;44.484;11.240;2022-09-16T12:03:01;28.60;99.90
18339;DHT22;9295;44.484;11.240;2022-09-16T12:05:35;28.50;99.90
18339;DHT22;9295;44.484;11.240;2022-09-16T12:08:13;28.40;99.90
18339;DHT22;9295;44.484;11.240;2022-09-16T12:10:51;28.40;99.90
18339;DHT22;9295;44.484;11.240;2022-09-16T12:13:25;28.40;99.90
18339;DHT22;9295;44.484;11.240;2022-09-16T12:16:00;28.40;99.90
18339;DHT22;9295;44.484;11.240;2022-09-16T12:18:31;28.40;99.90
18339;DHT22;9295;44.484;11.240;2022-09-16T12:21:06;28.30;99.90
18339;DHT22;9295;44.484;11.240;2022-09-16T12:23:40;28.20;99.90
18339;DHT22;9295;44.484;11.240;2022-09-16T12:26:13;28.20;99.90
18339;DHT22;9295;44.484;11.240;2022-09-16T12:28:49;28.40;99.90
18339;DHT22;9295;44.484;11.240;2022-09-16T12:31:22;28.50;99.90
18339;DHT22;9295;44.484;11.240;2022-09-16T12:33:56;28.70;99.90
18339;DHT22;9295;44.484;11.240;2022-09-16T12:36:28;28.80;99.90
18339;DHT22;9295;44.484;11.240;2022-09-16T12:38:57;28.90;99.90
18339;DHT22;9295;44.484;11.240;2022-09-16T12:41:45;28.90;99.90
18339;DHT22;9295;44.484;11.240;2022-09-16T12:44:50;28.90;99.90
18339;DHT22;9295;44.484;11.240;2022-09-16T12:47:36;29.00;99.90
18339;DHT22;9295;44.484;11.240;2022-09-16T12:53:40;29.20;99.90
18339;DHT22;9295;44.484;11.240;2022-09-16T12:56:34;29.20;99.90
18339;DHT22;9295;44.484;11.240;2022-09-16T12:59:26;29.10;99.90
18339;DHT22;9295;44.484;11.240;2022-09-16T13:02:05;29.10;99.90
18339;DHT22;9295;44.484;11.240;2022-09-16T13:04:42;29.40;99.90
18339;DHT22;9295;44.484;11.240;2022-09-16T13:07:20;29.60;99.90
18339;DHT22;9295;44.484;11.240;2022-09-16T13:09:59;29.70;99.90
18339;DHT22;9295;44.484;11.240;2022-09-16T13:12:28;29.70;99.40
18339;DHT22;9295;44.484;11.240;2022-09-16T13:15:19;29.80;99.20
18339;DHT22;9295;44.484;11.240;2022-09-16T13:17:49;29.80;99.60
18339;DHT22;9295;44.484;11.240;2022-09-16T13:20:25;29.80;99.50
18339;DHT22;9295;44.484;11.240;2022-09-16T13:23:02;29.90;99.00
18339;DHT22;9295;44.484;11.240;2022-09-16T13:25:41;30.00;98.50
18339;DHT22;9295;44.484;11.240;2022-09-16T13:28:23;29.90;99.00
18339;DHT22;9295;44.484;11.240;2022-09-16T13:30:53;30.00;98.90
18339;DHT22;9295;44.484;11.240;2022-09-16T13:33:27;30.10;98.60
18339;DHT22;9295;44.484;11.240;2022-09-16T13:36:28;30.00;98.10
18339;DHT22;9295;44.484;11.240;2022-09-16T13:38:58;30.20;97.40
18339;DHT22;9295;44.484;11.240;2022-09-16T13:41:33;30.20;98.00
18339;DHT22;9295;44.484;11.240;2022-09-16T13:44:24;30.10;98.00
18339;DHT22;9295;44.484;11.240;2022-09-16T13:46:52;30.10;97.80
18339;DHT22;9295;44.484;11.240;2022-09-16T13:49:23;30.20;96.60
18339;DHT22;9295;44.484;11.240;2022-09-16T13:51:55;30.30;95.80
18339;DHT22;9295;44.484;11.240;2022-09-16T13:54:28;30.40;95.60
18339;DHT22;9295;44.484;11.240;2022-09-16T13:57:19;30.50;94.60
18339;DHT22;9295;44.484;11.240;2022-09-16T14:00:03;30.60;94.30
18339;DHT22;9295;44.484;11.240;2022-09-16T14:02:46;30.60;94.30
18339;DHT22;9295;44.484;11.240;2022-09-16T14:05:29;30.60;92.90
18339;DHT22;9295;44.484;11.240;2022-09-16T14:08:07;30.60;91.80
18339;DHT22;9295;44.484;11.240;2022-09-16T14:10:45;30.60;91.50
18339;DHT22;9295;44.484;11.240;2022-09-16T14:13:18;30.60;92.30
18339;DHT22;9295;44.484;11.240;2022-09-16T14:15:49;30.50;91.90
18339;DHT22;9295;44.484;11.240;2022-09-16T14:18:21;30.50;92.00
18339;DHT22;9295;44.484;11.240;2022-09-16T14:20:59;30.40;92.80
18339;DHT22;9295;44.484;11.240;2022-09-16T14:23:30;30.20;93.30
18339;DHT22;9295;44.484;11.240;2022-09-16T14:26:09;30.10;93.80
18339;DHT22;9295;44.484;11.240;2022-09-16T14:28:38;30.20;94.60
18339;DHT22;9295;44.484;11.240;2022-09-16T14:31:08;30.20;94.70
18339;DHT22;9295;44.484;11.240;2022-09-16T14:33:41;30.20;94.90
18339;DHT22;9295;44.484;11.240;2022-09-16T14:36:13;30.10;95.10
18339;DHT22;9295;44.484;11.240;2022-09-16T14:38:45;30.00;95.20
18339;DHT22;9295;44.484;11.240;2022-09-16T14:41:21;29.90;95.20
18339;DHT22;9295;44.484;11.240;2022-09-16T14:43:52;29.90;94.90
18339;DHT22;9295;44.484;11.240;2022-09-16T14:46:21;29.90;94.00
18339;DHT22;9295;44.484;11.240;2022-09-16T14:48:49;29.80;93.80
18339;DHT22;9295;44.484;11.240;2022-09-16T14:51:21;29.90;93.20
18339;DHT22;9295;44.484;11.240;2022-09-16T14:53:57;29.90;93.50
18339;DHT22;9295;44.484;11.240;2022-09-16T14:56:39;29.90;92.90
18339;DHT22;9295;44.484;11.240;2022-09-16T14:59:10;29.80;93.20
18339;DHT22;9295;44.484;11.240;2022-09-16T15:01:39;29.80;93.80
18339;DHT22;9295;44.484;11.240;2022-09-16T15:04:10;29.80;93.90
18339;DHT22;9295;44.484;11.240;2022-09-16T15:06:44;29.70;93.90
18339;DHT22;9295;44.484;11.240;2022-09-16T15:09:19;29.60;93.90
18339;DHT22;9295;44.484;11.240;2022-09-16T15:11:55;29.70;93.90
18339;DHT22;9295;44.484;11.240;2022-09-16T15:14:24;29.60;94.10
18339;DHT22;9295;44.484;11.240;2022-09-16T15:16:58;29.50;94.90
18339;DHT22;9295;44.484;11.240;2022-09-16T15:19:30;29.50;94.70
18339;DHT22;9295;44.484;11.240;2022-09-16T15:22:00;29.50;94.90
18339;DHT22;9295;44.484;11.240;2022-09-16T15:24:33;29.50;94.20
18339;DHT22;9295;44.484;11.240;2022-09-16T15:27:02;29.50;94.40
18339;DHT22;9295;44.484;11.240;2022-09-16T15:29:32;29.40;94.40
18339;DHT22;9295;44.484;11.240;2022-09-16T15:32:15;29.30;94.70
18339;DHT22;9295;44.484;11.240;2022-09-16T15:34:45;29.20;94.90
18339;DHT22;9295;44.484;11.240;2022-09-16T15:37:30;29.20;94.90
18339;DHT22;9295;44.484;11.240;2022-09-16T15:43:13;29.10;95.60
18339;DHT22;9295;44.484;11.240;2022-09-16T15:45:45;29.00;96.40
18339;DHT22;9295;44.484;11.240;2022-09-16T15:48:30;28.90;96.50
18339;DHT22;9295;44.484;11.240;2022-09-16T15:51:02;28.80;96.60
18339;DHT22;9295;44.484;11.240;2022-09-16T15:53:39;28.70;96.70
18339;DHT22;9295;44.484;11.240;2022-09-16T15:56:20;28.70;97.00
18339;DHT22;9295;44.484;11.240;2022-09-16T15:58:51;28.60;97.20
18339;DHT22;9295;44.484;11.240;2022-09-16T16:01:39;28.60;97.20
18339;DHT22;9295;44.484;11.240;2022-09-16T16:04:11;28.50;97.40
18339;DHT22;9295;44.484;11.240;2022-09-16T16:06:49;28.50;97.70
18339;DHT22;9295;44.484;11.240;2022-09-16T16:09:32;28.40;97.80
18339;DHT22;9295;44.484;11.240;2022-09-16T16:12:04;28.30;98.00
18339;DHT22;9295;44.484;11.240;2022-09-16T16:14:34;28.30;98.30
18339;DHT22;9295;44.484;11.240;2022-09-16T16:17:05;28.20;98.30
18339;DHT22;9295;44.484;11.240;2022-09-16T16:19:40;28.10;98.40
18339;DHT22;9295;44.484;11.240;2022-09-16T16:22:08;28.00;98.70